RPVDRPVM

Guest
Details From RPVD - DUMAGUETE
To RPVM - MACTAN CEBU INTL
Flight Number -
Tags generated
Created
Modified
Stats Distance 71 nm / 132 km
Max Altitude 6,000 ft / 1,829 m
Waypoints 3
Social Downloads 2
Likes 0
Share VATSIM

Download

Looking for another format? Having issues loading an existing format? Contact us
Advertisement - Login to hide

Notes

Basic altitude profile: - Ascent Rate: 2500ft/min - Ascent Speed: 250kts - Cruise Altitude: 20000ft - Cruise Speed: 420kts - Descent Rate: 1500ft/min - Descent Speed: 250kts

Route

RPVD LAMOK RPVM

ID Type Via Altitude Latitude Longitude Leg Dist Tot Dist Heading (true) Name
O RPVD APT - 0 ft / 0 m 9.33371˚ 123.30047˚ - 0 nm - DUMAGUETE
LAMOK FIX - 6,000 ft / 1,829 m 9.89932˚ 123.74975˚ 43 nm 43 nm 38° / 38° -
O RPVM APT - 0 ft / 0 m 10.30756˚ 123.97944˚ 28 nm 71 nm 29° / 29° MACTAN CEBU INTL

Altitude Profile

Advertisement - Login to hide

RPVD

Details ICAO RPVD (DGT)
Name DUMAGUETE
Region Philippines
Timezone Asia/Manila (UTC+8.0)
Stats Elevation 15 ft / 5 m (AMSL)
Location 9.333714° 123.300473°
Runways 1
Magnetic Variation 1.224° W

METAR

RPVD 151500Z 00000KT 8000 -RA FEW015 OVC080 23/21 Q1009 RMK A2980

Decode

TAF

Not found

Departure Runways

ID Width Length Bearing (true) Bearing (mag) Surface Threshold Offset Overrun Length
09 118 ft / 36 m 6,131 ft / 1,869 m 92.97° 94.19° Asphalt 0 ft / 0 m 182 ft / 55 m
27 118 ft / 36 m 6,131 ft / 1,869 m 272.98° 274.20° Asphalt 0 ft / 0 m 0 ft / 0 m

RPVM

Details ICAO RPVM (CEB)
Name MACTAN CEBU INTL
Region Philippines
Timezone Asia/Manila (UTC+8.0)
Stats Elevation 31 ft / 9 m (AMSL)
Location 10.307564° 123.979439°
Runways 1
Magnetic Variation 1.411° W

METAR

RPVM 151500Z 02012KT 8000 -RA SCT020 OVC080 22/20 Q1010 RMK A2983

Decode

TAF

TAF RPVM 151100Z 1512/1618 27008KT 9000 -RA SCT020 OVC090 TEMPO 1512/1518 24006KT 7000 RA SCT018 OVC080 TEMPO 1518/1524 22006KT 6000 +RA SCT018 OVC070

Decode

Destination Runways

ID Width Length Bearing (true) Bearing (mag) Surface Threshold Offset Overrun Length
04 148 ft / 45 m 10,886 ft / 3,318 m 44.65° 46.06° Asphalt 0 ft / 0 m 197 ft / 60 m
22 148 ft / 45 m 10,886 ft / 3,318 m 224.66° 226.07° Asphalt 0 ft / 0 m 197 ft / 60 m

Approach Navaids

Runway Type Ident Frequency Range Bearing (true) Bearing (mag) Slope Elevation
04 Localiser IMT 109.90 MHz 18 nm / 33 km 44.65° 46.06° - 30 ft / 9 m (AMSL)
04 Glidescope IMT 109.90 MHz 10 nm / 19 km 44.65° 46.06° 3.10° 31 ft / 9 m (AMSL)
04 DME IMT 109.90 MHz 18 nm / 33 km - - - 31 ft / 9 m (AMSL)
22 Localiser IMCT 109.10 MHz 18 nm / 33 km 224.65° 226.06° - 20 ft / 6 m (AMSL)
22 Glidescope IMCT 109.10 MHz 10 nm / 19 km 224.65° 226.06° 3.00° 31 ft / 9 m (AMSL)
22 DME IMCT 109.10 MHz 18 nm / 33 km - - - 36 ft / 11 m (AMSL)

Popular Alternatives